Weather at Leonardo da Vinci–Fiumicino Airport

Public forecast

Using degrees Celsius for public forecast. Weather courtesy of forecast.io.

Current aviation weather report (METAR) for Leonardo da Vinci–Fiumicino Airport

Retrieved 2021/04/20 22:20 UTC (50 minutes ago):

LIRF 202220Z 07003KT CAVOK 08/07 Q1019 NOSIG

Aviation forecast (TAF) for Leonardo da Vinci–Fiumicino Airport

Retrieved 2021/04/20 18:00 UTC (5 hours ago):

TAF LIRF 201700Z 2018/2124 28010KT 9999 SCT030 BECMG 2019/2021 VRB05KT TEMPO 2101/2105 4000 BR BECMG 2109/2111 16014KT